createdAt,value
2022-12-03T00:02:08.404Z,1.75
2022-12-03T00:04:53.672Z,1.89
2022-12-03T00:07:38.607Z,1.97
2022-12-03T00:10:23.559Z,1.82
2022-12-03T00:13:08.417Z,1.84
2022-12-03T00:15:53.576Z,1.81
2022-12-03T00:18:38.818Z,1.86
2022-12-03T00:21:24.862Z,1.85
2022-12-03T00:24:10.191Z,1.87
2022-12-03T00:26:55.558Z,1.86
2022-12-03T00:29:40.292Z,1.89
2022-12-03T00:32:25.473Z,1.80
2022-12-03T00:35:10.214Z,1.80
2022-12-03T00:37:55.901Z,1.87
2022-12-03T00:40:41.414Z,1.80
2022-12-03T00:43:26.357Z,1.86
2022-12-03T00:46:11.254Z,1.88
2022-12-03T00:48:56.397Z,1.80
2022-12-03T00:51:41.560Z,1.77
2022-12-03T00:54:31.566Z,1.78
2022-12-03T00:57:16.988Z,1.75
2022-12-03T01:00:02.105Z,1.82
2022-12-03T01:02:47.042Z,1.77
2022-12-03T01:05:32.019Z,1.87
2022-12-03T01:08:16.926Z,1.85
2022-12-03T01:11:02.048Z,1.74
2022-12-03T01:13:47.307Z,1.94
2022-12-03T01:16:32.843Z,1.94
2022-12-03T01:19:18.261Z,2.03
2022-12-03T01:22:03.053Z,2.04
2022-12-03T01:24:48.367Z,1.97
2022-12-03T01:27:33.453Z,2.01
2022-12-03T01:30:18.421Z,2.08
2022-12-03T01:33:03.291Z,2.05
2022-12-03T01:35:48.469Z,2.05
2022-12-03T01:38:33.656Z,2.00
2022-12-03T01:41:20.312Z,2.11
2022-12-03T01:44:20.834Z,2.06
2022-12-03T01:47:10.475Z,2.02
2022-12-03T01:50:01.443Z,2.10
2022-12-03T01:52:46.688Z,2.14
2022-12-03T01:55:31.732Z,2.13
2022-12-03T01:58:21.326Z,2.02
2022-12-03T02:01:16.320Z,2.03
2022-12-03T02:04:01.450Z,2.06
2022-12-03T02:06:46.501Z,2.05
2022-12-03T02:09:31.698Z,2.05
2022-12-03T02:12:22.325Z,2.04
2022-12-03T02:15:09.085Z,2.06
2022-12-03T02:17:55.330Z,2.02
2022-12-03T02:21:01.153Z,2.06
2022-12-03T02:24:10.491Z,2.05
2022-12-03T02:26:55.448Z,2.11
2022-12-03T02:29:40.556Z,2.08
2022-12-03T02:32:25.976Z,2.07
2022-12-03T02:35:17.282Z,2.09
2022-12-03T02:38:11.151Z,2.03
2022-12-03T02:40:59.409Z,2.05
2022-12-03T02:43:44.375Z,2.07
2022-12-03T02:46:29.952Z,2.02
2022-12-03T02:49:15.008Z,2.00
2022-12-03T02:52:00.034Z,2.03
2022-12-03T02:54:45.128Z,2.00
2022-12-03T02:57:30.148Z,2.00
2022-12-03T03:00:16.951Z,2.04
2022-12-03T03:03:04.649Z,2.07
2022-12-03T03:05:50.550Z,2.06
2022-12-03T03:08:37.683Z,2.04
2022-12-03T03:11:23.933Z,2.00
2022-12-03T03:14:09.318Z,2.05
2022-12-03T03:16:56.099Z,2.01
2022-12-03T03:19:41.999Z,1.99
2022-12-03T03:22:35.011Z,1.94
2022-12-03T03:25:24.625Z,2.02
2022-12-03T03:28:10.211Z,1.98
2022-12-03T03:30:56.496Z,1.98
2022-12-03T03:33:43.798Z,1.97
2022-12-03T03:36:28.785Z,1.96
2022-12-03T03:39:13.988Z,1.96
2022-12-03T03:41:58.959Z,2.04
2022-12-03T03:44:44.368Z,1.96
2022-12-03T03:47:29.306Z,1.91
2022-12-03T03:50:14.989Z,1.94
2022-12-03T03:53:02.433Z,2.01
2022-12-03T03:55:48.121Z,2.08
2022-12-03T03:58:33.249Z,2.06
2022-12-03T04:01:18.401Z,2.05
2022-12-03T04:04:03.713Z,2.00
2022-12-03T04:06:49.049Z,2.10
2022-12-03T04:09:33.870Z,2.02
2022-12-03T04:12:37.115Z,2.06
2022-12-03T04:15:22.413Z,2.04
2022-12-03T04:18:25.778Z,2.02
2022-12-03T04:21:36.903Z,2.04
2022-12-03T04:24:21.946Z,2.07
2022-12-03T04:27:27.073Z,2.01
2022-12-03T04:30:12.486Z,2.04
2022-12-03T04:33:15.706Z,2.05
2022-12-03T04:36:00.786Z,2.01
2022-12-03T04:38:45.909Z,2.02
2022-12-03T04:41:30.999Z,2.01
2022-12-03T04:44:33.793Z,2.00
2022-12-03T04:47:20.586Z,2.00
2022-12-03T04:50:06.478Z,2.03
2022-12-03T04:52:51.390Z,2.09
2022-12-03T04:55:36.369Z,2.11
2022-12-03T04:58:21.262Z,2.08
2022-12-03T05:01:06.490Z,1.92
2022-12-03T05:03:51.674Z,2.00
2022-12-03T05:06:36.895Z,1.94
2022-12-03T05:09:21.824Z,1.96
2022-12-03T05:12:06.978Z,2.01
2022-12-03T05:14:52.297Z,1.95
2022-12-03T05:17:37.611Z,1.98
2022-12-03T05:20:40.895Z,1.92
2022-12-03T05:23:26.036Z,2.01
2022-12-03T05:26:11.522Z,1.97
2022-12-03T05:28:56.309Z,1.88
2022-12-03T05:31:41.489Z,1.99
2022-12-03T05:34:26.608Z,1.93
2022-12-03T05:37:11.687Z,1.90
2022-12-03T05:39:56.800Z,1.98
2022-12-03T05:42:53.729Z,1.88
2022-12-03T05:45:41.618Z,1.88
2022-12-03T05:48:26.452Z,1.95
2022-12-03T05:51:11.753Z,1.92
2022-12-03T05:53:56.798Z,1.87
2022-12-03T05:56:41.977Z,1.95
2022-12-03T05:59:27.246Z,2.00
2022-12-03T06:02:12.180Z,1.91
2022-12-03T06:04:57.088Z,1.85
2022-12-03T06:07:42.738Z,1.87
2022-12-03T06:10:28.535Z,1.91
2022-12-03T06:13:13.247Z,1.73
2022-12-03T06:15:58.364Z,1.71
2022-12-03T06:18:43.460Z,1.74
2022-12-03T06:21:28.336Z,1.72
2022-12-03T06:24:13.170Z,1.68
2022-12-03T06:26:58.389Z,1.63
2022-12-03T06:29:43.818Z,1.72
2022-12-03T06:32:28.658Z,1.73
2022-12-03T06:35:13.488Z,1.71
2022-12-03T06:37:58.534Z,1.69
2022-12-03T06:40:43.722Z,1.61
2022-12-03T06:43:30.772Z,1.73
2022-12-03T06:46:15.893Z,1.80
2022-12-03T06:49:01.100Z,1.83
2022-12-03T06:51:46.057Z,1.71
2022-12-03T06:54:31.346Z,1.76
2022-12-03T06:57:16.532Z,1.73
2022-12-03T07:00:02.139Z,1.77
2022-12-03T07:02:47.312Z,1.69
2022-12-03T07:05:32.309Z,1.80
2022-12-03T07:08:17.296Z,1.87
2022-12-03T07:11:02.428Z,1.89
2022-12-03T07:13:47.517Z,1.71
2022-12-03T07:16:33.183Z,1.65
2022-12-03T07:19:18.517Z,1.68
2022-12-03T07:22:03.837Z,1.69
2022-12-03T07:24:48.934Z,1.73
2022-12-03T07:27:34.035Z,1.73
2022-12-03T07:30:19.151Z,1.65
2022-12-03T07:33:04.419Z,1.69
2022-12-03T07:35:49.613Z,1.69
2022-12-03T07:38:34.698Z,1.68
2022-12-03T07:41:19.643Z,1.72
2022-12-03T07:44:10.675Z,1.70
2022-12-03T07:46:59.191Z,1.79
2022-12-03T07:49:44.275Z,1.73
2022-12-03T07:52:29.507Z,1.73
2022-12-03T07:55:14.466Z,1.80
2022-12-03T07:57:59.618Z,1.83
2022-12-03T08:00:44.593Z,1.84
2022-12-03T08:03:29.601Z,1.82
2022-12-03T08:06:14.342Z,1.88
2022-12-03T08:08:59.581Z,1.88
2022-12-03T08:11:48.015Z,1.82
2022-12-03T08:14:33.016Z,1.91
2022-12-03T08:17:19.676Z,1.87
2022-12-03T08:20:19.712Z,1.87
2022-12-03T08:23:12.872Z,1.91
2022-12-03T08:26:01.941Z,1.97
2022-12-03T08:28:46.907Z,2.00
2022-12-03T08:31:33.704Z,1.92
2022-12-03T08:34:26.074Z,1.98
2022-12-03T08:37:17.080Z,2.00
2022-12-03T08:40:01.969Z,1.98
2022-12-03T08:42:47.265Z,1.99
2022-12-03T08:45:39.530Z,1.92
2022-12-03T08:48:29.557Z,1.89
2022-12-03T08:51:25.401Z,1.91
2022-12-03T08:54:19.267Z,1.86
2022-12-03T08:57:31.513Z,1.85
2022-12-03T09:00:22.772Z,1.95
2022-12-03T09:03:15.629Z,1.88
2022-12-03T09:06:00.663Z,1.90
2022-12-03T09:08:46.087Z,1.91
2022-12-03T09:11:30.909Z,1.94
2022-12-03T09:14:18.944Z,1.90
2022-12-03T09:17:04.173Z,1.99
2022-12-03T09:19:49.350Z,1.94
2022-12-03T09:22:34.450Z,1.91
2022-12-03T09:25:19.398Z,1.94
2022-12-03T09:28:04.621Z,2.05
2022-12-03T09:30:49.676Z,1.98
2022-12-03T09:33:35.073Z,1.96
2022-12-03T09:36:20.175Z,1.93
2022-12-03T09:39:05.407Z,1.94
2022-12-03T09:41:50.673Z,2.00
2022-12-03T09:44:37.493Z,2.03
2022-12-03T09:47:23.034Z,2.04
2022-12-03T09:50:13.544Z,1.94
2022-12-03T09:53:01.862Z,1.92
2022-12-03T09:55:49.086Z,2.10
2022-12-03T09:58:35.075Z,2.16
2022-12-03T10:01:20.448Z,2.08
2022-12-03T10:04:05.636Z,2.17
2022-12-03T10:06:51.101Z,2.09
2022-12-03T10:09:35.914Z,2.07
2022-12-03T10:12:24.851Z,2.13
2022-12-03T10:15:13.815Z,2.15
2022-12-03T10:18:01.294Z,2.01
2022-12-03T10:20:47.011Z,2.21
2022-12-03T10:23:32.120Z,2.23
2022-12-03T10:26:17.182Z,2.25
2022-12-03T10:29:01.989Z,2.11
2022-12-03T10:31:55.006Z,2.28
2022-12-03T10:34:41.826Z,2.17
2022-12-03T10:37:26.666Z,2.39
2022-12-03T10:40:11.989Z,2.23
2022-12-03T10:43:19.063Z,2.30
2022-12-03T10:46:04.849Z,2.45
2022-12-03T10:49:09.114Z,2.34
2022-12-03T10:51:55.186Z,2.36
2022-12-03T10:54:40.210Z,2.42
2022-12-03T10:57:25.494Z,2.50
2022-12-03T11:00:20.499Z,2.45
2022-12-03T11:03:17.345Z,2.59
2022-12-03T11:06:02.786Z,2.59
2022-12-03T11:08:56.512Z,2.67
2022-12-03T11:11:42.640Z,2.56
2022-12-03T11:14:54.426Z,2.53
2022-12-03T11:17:51.127Z,2.48
2022-12-03T11:20:42.329Z,2.52
2022-12-03T11:23:45.460Z,2.60
2022-12-03T11:26:30.219Z,2.52
2022-12-03T11:29:15.349Z,2.31
2022-12-03T11:32:00.549Z,2.32
2022-12-03T11:34:45.682Z,2.42
2022-12-03T11:37:31.119Z,2.53
2022-12-03T11:40:16.088Z,2.36
2022-12-03T11:43:01.282Z,2.36
2022-12-03T11:45:46.315Z,2.51
2022-12-03T11:48:44.189Z,2.39
2022-12-03T11:51:30.008Z,2.46
2022-12-03T11:54:21.157Z,2.36
2022-12-03T11:57:26.598Z,2.40
2022-12-03T12:00:19.776Z,2.39
2022-12-03T12:03:04.622Z,2.27
2022-12-03T12:06:14.151Z,2.31
2022-12-03T12:08:59.790Z,2.42
2022-12-03T12:11:44.599Z,2.53
2022-12-03T12:14:29.867Z,2.38
2022-12-03T12:17:35.533Z,2.42
2022-12-03T12:20:27.340Z,2.50
2022-12-03T12:23:27.714Z,2.48
2022-12-03T12:26:12.785Z,2.39
2022-12-03T12:28:57.833Z,2.56
2022-12-03T12:31:42.975Z,2.49
2022-12-03T12:34:28.164Z,2.52
2022-12-03T12:37:26.053Z,2.43
2022-12-03T12:40:15.453Z,2.36
2022-12-03T12:43:15.273Z,2.42
2022-12-03T12:46:45.518Z,2.33
2022-12-03T12:49:15.774Z,2.42
2022-12-03T12:52:01.164Z,2.35
2022-12-03T12:54:45.922Z,2.35
2022-12-03T12:57:31.327Z,2.37
2022-12-03T13:00:19.139Z,2.56
2022-12-03T13:03:05.200Z,2.46
2022-12-03T13:05:52.501Z,2.43
2022-12-03T13:08:40.398Z,2.44
2022-12-03T13:11:25.344Z,2.42
2022-12-03T13:14:15.300Z,2.47
2022-12-03T13:17:10.821Z,2.57
2022-12-03T13:20:06.675Z,2.61
2022-12-03T13:22:52.593Z,2.48
2022-12-03T13:25:59.332Z,2.60
2022-12-03T13:28:43.313Z,2.40
2022-12-03T13:31:33.223Z,2.55
2022-12-03T13:34:24.500Z,2.50
2022-12-03T13:37:15.830Z,2.48
2022-12-03T13:40:12.005Z,2.44
2022-12-03T13:42:57.733Z,2.45
2022-12-03T13:45:49.029Z,2.52
2022-12-03T13:48:36.998Z,2.60
2022-12-03T13:51:27.438Z,2.52
2022-12-03T13:54:22.685Z,2.43
2022-12-03T13:57:07.600Z,2.45
2022-12-03T13:59:52.722Z,2.37
2022-12-03T14:02:38.046Z,2.35
2022-12-03T14:05:23.129Z,2.25
2022-12-03T14:08:07.937Z,2.40
2022-12-03T14:10:58.568Z,2.42
2022-12-03T14:13:45.350Z,2.37
2022-12-03T14:16:30.407Z,2.34
2022-12-03T14:19:15.581Z,2.39
2022-12-03T14:22:00.411Z,2.32
2022-12-03T14:24:45.471Z,2.39
2022-12-03T14:27:30.696Z,2.37
2022-12-03T14:30:15.656Z,2.31
2022-12-03T14:33:00.557Z,2.32
2022-12-03T14:35:45.669Z,2.38
2022-12-03T14:38:30.920Z,2.40
2022-12-03T14:41:34.251Z,2.49
2022-12-03T14:44:21.811Z,2.30
2022-12-03T14:47:06.745Z,2.36
2022-12-03T14:49:52.691Z,2.32
2022-12-03T14:52:38.357Z,2.38
2022-12-03T14:55:23.282Z,2.30
2022-12-03T14:58:08.379Z,2.27
2022-12-03T15:00:53.613Z,2.28
2022-12-03T15:03:38.558Z,2.25
2022-12-03T15:06:23.615Z,2.37
2022-12-03T15:09:08.652Z,2.31
2022-12-03T15:11:54.113Z,2.32
2022-12-03T15:14:39.321Z,2.30
2022-12-03T15:17:31.215Z,2.33
2022-12-03T15:20:16.865Z,2.31
2022-12-03T15:23:01.981Z,2.37
2022-12-03T15:25:47.238Z,2.38
2022-12-03T15:28:32.130Z,2.37
2022-12-03T15:31:17.054Z,2.35
2022-12-03T15:34:02.254Z,2.38
2022-12-03T15:36:47.406Z,2.37
2022-12-03T15:39:33.229Z,2.34
2022-12-03T15:42:18.426Z,2.33
2022-12-03T15:45:05.201Z,2.30
2022-12-03T15:47:50.110Z,2.34
2022-12-03T15:50:39.936Z,2.30
2022-12-03T15:53:25.413Z,2.33
2022-12-03T15:56:11.938Z,2.32
2022-12-03T15:58:56.957Z,2.33
2022-12-03T16:01:42.021Z,2.27
2022-12-03T16:04:27.040Z,2.34
2022-12-03T16:07:11.888Z,2.30
2022-12-03T16:09:57.240Z,2.26
2022-12-03T16:12:42.218Z,2.28
2022-12-03T16:15:27.614Z,2.26
2022-12-03T16:18:12.670Z,2.32
2022-12-03T16:20:57.803Z,2.30
2022-12-03T16:23:42.991Z,2.28
2022-12-03T16:26:28.085Z,2.40
2022-12-03T16:29:13.071Z,2.33
2022-12-03T16:31:58.215Z,2.31
2022-12-03T16:34:43.254Z,2.38
2022-12-03T16:37:28.365Z,2.41
2022-12-03T16:40:13.246Z,2.30
2022-12-03T16:42:58.307Z,2.39
2022-12-03T16:45:45.863Z,2.35
2022-12-03T16:48:31.050Z,2.34
2022-12-03T16:51:16.865Z,2.33
2022-12-03T16:54:01.668Z,2.28
2022-12-03T16:56:46.779Z,2.31
2022-12-03T16:59:31.856Z,2.36
2022-12-03T17:02:16.961Z,2.26
2022-12-03T17:05:02.075Z,2.28
2022-12-03T17:07:47.193Z,2.24
2022-12-03T17:10:32.355Z,2.25
2022-12-03T17:13:17.234Z,2.29
2022-12-03T17:16:02.586Z,2.27
2022-12-03T17:18:47.611Z,2.23
2022-12-03T17:21:35.001Z,2.32
2022-12-03T17:24:21.228Z,2.26
2022-12-03T17:27:07.770Z,2.27
2022-12-03T17:29:53.046Z,2.27
2022-12-03T17:32:38.474Z,2.34
2022-12-03T17:35:23.344Z,2.27
2022-12-03T17:38:09.001Z,2.30
2022-12-03T17:40:54.226Z,2.33
2022-12-03T17:43:39.386Z,2.35
2022-12-03T17:46:24.225Z,2.22
2022-12-03T17:49:09.307Z,2.35
2022-12-03T17:51:54.445Z,2.33
2022-12-03T17:55:08.329Z,2.33
2022-12-03T17:57:44.947Z,2.25
2022-12-03T18:00:30.190Z,2.18
2022-12-03T18:03:15.104Z,2.26
2022-12-03T18:06:00.367Z,2.32
2022-12-03T18:08:45.109Z,2.23
2022-12-03T18:11:30.778Z,2.16
2022-12-03T18:14:15.595Z,2.19
2022-12-03T18:17:00.871Z,2.22
2022-12-03T18:19:45.892Z,2.19
2022-12-03T18:22:31.428Z,2.21
2022-12-03T18:25:17.945Z,2.19
2022-12-03T18:28:02.835Z,2.19
2022-12-03T18:30:52.437Z,2.17
2022-12-03T18:33:37.837Z,2.20
2022-12-03T18:36:29.839Z,2.17
2022-12-03T18:39:27.342Z,2.12
2022-12-03T18:42:17.501Z,2.25
2022-12-03T18:45:02.900Z,2.19
2022-12-03T18:47:47.819Z,2.25
2022-12-03T18:50:32.878Z,2.17
2022-12-03T18:53:18.927Z,2.13
2022-12-03T18:56:03.875Z,2.13
2022-12-03T18:58:49.072Z,2.20
2022-12-03T19:01:35.186Z,2.19
2022-12-03T19:04:20.138Z,2.15
2022-12-03T19:07:05.019Z,2.15
2022-12-03T19:09:50.209Z,2.17
2022-12-03T19:12:35.481Z,2.14
2022-12-03T19:15:20.858Z,2.15
2022-12-03T19:18:07.279Z,2.11
2022-12-03T19:20:52.206Z,2.19
2022-12-03T19:23:37.758Z,2.09
2022-12-03T19:26:22.542Z,2.08
2022-12-03T19:29:08.469Z,2.11
2022-12-03T19:31:53.752Z,2.19
2022-12-03T19:34:38.975Z,2.17
2022-12-03T19:37:24.588Z,2.17
2022-12-03T19:40:10.295Z,2.14
2022-12-03T19:42:55.074Z,2.19
2022-12-03T19:45:40.217Z,2.16
2022-12-03T19:48:25.490Z,2.14
2022-12-03T19:51:33.145Z,2.15
2022-12-03T19:54:16.350Z,2.11
2022-12-03T19:57:01.556Z,2.02
2022-12-03T19:59:46.851Z,2.12
2022-12-03T20:02:31.814Z,1.99
2022-12-03T20:05:17.102Z,2.01
2022-12-03T20:08:02.386Z,1.98
2022-12-03T20:10:47.284Z,2.04
2022-12-03T20:13:36.432Z,2.07
2022-12-03T20:16:22.338Z,2.05
2022-12-03T20:19:10.708Z,2.06
2022-12-03T20:22:02.062Z,2.06
2022-12-03T20:24:47.852Z,1.99
2022-12-03T20:27:33.372Z,2.04
2022-12-03T20:30:19.094Z,2.03
2022-12-03T20:33:04.077Z,2.08
2022-12-03T20:35:53.710Z,2.10
2022-12-03T20:38:38.937Z,2.16
2022-12-03T20:41:24.605Z,2.02
2022-12-03T20:44:09.905Z,2.07
2022-12-03T20:46:55.109Z,2.05
2022-12-03T20:49:40.210Z,1.94
2022-12-03T20:52:25.374Z,1.96
2022-12-03T20:55:10.115Z,1.98
2022-12-03T20:57:55.223Z,2.04
2022-12-03T21:00:40.381Z,1.94
2022-12-03T21:03:25.529Z,1.94
2022-12-03T21:06:11.088Z,2.07
2022-12-03T21:08:57.529Z,2.02
2022-12-03T21:11:43.521Z,2.02
2022-12-03T21:14:28.386Z,2.08
2022-12-03T21:17:13.505Z,2.10
2022-12-03T21:19:58.150Z,1.99
2022-12-03T21:22:43.350Z,1.97
2022-12-03T21:25:28.510Z,2.04
2022-12-03T21:28:13.345Z,1.91
2022-12-03T21:31:03.630Z,2.05
2022-12-03T21:33:48.663Z,1.95
2022-12-03T21:36:33.985Z,1.97
2022-12-03T21:39:19.297Z,2.06
2022-12-03T21:42:33.675Z,1.99
2022-12-03T21:45:09.503Z,2.01
2022-12-03T21:47:54.492Z,1.91
2022-12-03T21:50:39.468Z,1.98
2022-12-03T21:53:24.310Z,1.99
2022-12-03T21:56:15.486Z,1.96
2022-12-03T21:59:00.331Z,1.84
2022-12-03T22:01:47.257Z,1.96
2022-12-03T22:04:32.911Z,2.00
2022-12-03T22:07:17.901Z,2.03
2022-12-03T22:10:04.777Z,1.97
2022-12-03T22:12:49.952Z,1.88
2022-12-03T22:15:39.912Z,1.92
2022-12-03T22:18:25.183Z,1.88
2022-12-03T22:21:13.453Z,1.83
2022-12-03T22:23:58.305Z,1.91
2022-12-03T22:26:43.469Z,1.87
2022-12-03T22:29:28.577Z,1.87
2022-12-03T22:32:13.459Z,1.89
2022-12-03T22:34:58.623Z,1.86
2022-12-03T22:37:43.665Z,1.84
2022-12-03T22:40:28.911Z,1.89
2022-12-03T22:43:13.679Z,1.87
2022-12-03T22:45:58.821Z,1.86
2022-12-03T22:48:46.574Z,1.83
2022-12-03T22:51:31.410Z,1.82
2022-12-03T22:54:20.891Z,1.84
2022-12-03T22:57:08.812Z,1.88
2022-12-03T22:59:54.108Z,1.85
2022-12-03T23:02:39.642Z,1.88
2022-12-03T23:05:24.522Z,1.87
2022-12-03T23:08:15.956Z,1.93
2022-12-03T23:11:00.778Z,1.83
2022-12-03T23:13:46.160Z,1.77
2022-12-03T23:16:32.982Z,1.85
2022-12-03T23:19:19.755Z,1.80
2022-12-03T23:22:04.554Z,1.85
2022-12-03T23:24:49.695Z,1.89
2022-12-03T23:27:34.801Z,1.87
2022-12-03T23:30:19.822Z,1.82
2022-12-03T23:33:05.681Z,1.86
2022-12-03T23:35:50.718Z,1.82
2022-12-03T23:38:35.535Z,1.88
2022-12-03T23:41:22.491Z,1.84
2022-12-03T23:44:07.728Z,1.88
2022-12-03T23:46:53.069Z,1.82
2022-12-03T23:49:38.098Z,1.76
2022-12-03T23:52:23.346Z,1.74
2022-12-03T23:55:09.245Z,1.76
2022-12-03T23:57:54.329Z,1.80
